Time;durP1;ratioP1;P1;durP2;ratioP2;P2;SDS_P1;SDS_P2;PMS_P1;PMS_P2;Temp;Humidity;BMP_temperature;BMP_pressure;BME280_temperature;BME280_humidity;BME280_pressure;Samples;Min_cycle;Max_cycle;Signal;HPM_P1;HPM_P2
2022/07/01 00:01:29;;;;;;;10.60;6.93;;;21.90;99.90;;;;;;5052587;28;20193;-66
2022/07/01 00:03:55;;;;;;;7.50;6.67;;;21.80;99.90;;;;;;5053492;28;20213;-66
2022/07/01 00:06:20;;;;;;;7.70;7.10;;;21.80;99.90;;;;;;5052833;28;20424;-66
2022/07/01 00:08:47;;;;;;;7.47;6.67;;;21.80;99.90;;;;;;5052281;28;20627;-66
2022/07/01 00:11:13;;;;;;;8.33;7.30;;;21.80;99.90;;;;;;5052451;28;20184;-65
2022/07/01 00:13:38;;;;;;;9.43;8.53;;;21.70;99.90;;;;;;5077166;22;20536;-69
2022/07/01 00:16:04;;;;;;;9.73;7.40;;;21.70;99.90;;;;;;5033691;28;20539;-69
2022/07/01 00:18:30;;;;;;;7.93;6.67;;;21.70;99.90;;;;;;5034004;28;20171;-69
2022/07/01 00:20:56;;;;;;;8.10;7.30;;;21.70;99.90;;;;;;5033817;28;20168;-69
2022/07/01 00:23:21;;;;;;;9.17;8.23;;;21.70;99.90;;;;;;5033636;28;20513;-69
2022/07/01 00:25:47;;;;;;;8.83;7.60;;;21.70;99.90;;;;;;5033915;28;20175;-69
2022/07/01 00:28:12;;;;;;;10.90;8.83;;;21.60;99.90;;;;;;5033775;28;20183;-69
2022/07/01 00:30:38;;;;;;;9.27;8.27;;;21.60;99.90;;;;;;5033551;28;20165;-69
2022/07/01 00:33:04;;;;;;;9.33;8.43;;;21.60;99.90;;;;;;5033287;28;20201;-69
2022/07/01 00:35:30;;;;;;;9.27;8.07;;;21.60;99.90;;;;;;5033351;28;20604;-68
2022/07/01 00:37:56;;;;;;;8.50;7.70;;;21.60;99.90;;;;;;5033565;28;20547;-69
2022/07/01 00:40:23;;;;;;;9.90;8.67;;;21.50;99.90;;;;;;5033564;28;20538;-69
2022/07/01 00:42:48;;;;;;;11.67;9.30;;;21.50;99.90;;;;;;5033099;28;20876;-70
2022/07/01 00:45:14;;;;;;;10.40;9.33;;;21.50;99.90;;;;;;5032974;28;20486;-69
2022/07/01 00:47:40;;;;;;;11.33;9.20;;;21.50;99.90;;;;;;5033506;28;20219;-69
2022/07/01 00:50:08;;;;;;;11.20;9.80;;;21.50;99.90;;;;;;5033212;28;20163;-70
2022/07/01 00:52:34;;;;;;;10.90;9.10;;;21.50;99.90;;;;;;5033528;28;20409;-70
2022/07/01 00:55:03;;;;;;;12.30;10.40;;;21.50;99.90;;;;;;5033435;28;20427;-70
2022/07/01 00:57:34;;;;;;;11.30;10.10;;;21.40;99.90;;;;;;5033162;28;20970;-69
2022/07/01 01:00:03;;;;;;;12.23;9.73;;;21.40;99.90;;;;;;5032946;28;20456;-69
2022/07/01 01:02:29;;;;;;;9.67;8.20;;;21.40;99.90;;;;;;5032936;28;20428;-69
2022/07/01 01:04:54;;;;;;;12.53;11.13;;;21.40;99.90;;;;;;5032886;28;20437;-69
2022/07/01 01:07:20;;;;;;;13.00;9.87;;;21.40;99.90;;;;;;5032951;28;20160;-70
2022/07/01 01:09:46;;;;;;;11.93;10.50;;;21.40;99.90;;;;;;5033089;28;20189;-69
2022/07/01 01:12:13;;;;;;;10.20;8.43;;;21.40;99.90;;;;;;5032886;28;20224;-70
2022/07/01 01:14:46;;;;;;;13.37;11.37;;;21.40;99.90;;;;;;5032621;28;20217;-69
2022/07/01 01:17:12;;;;;;;11.47;9.73;;;21.40;99.90;;;;;;5033177;28;20559;-70
2022/07/01 01:19:38;;;;;;;10.77;9.63;;;21.40;99.90;;;;;;5030408;28;20406;-69
2022/07/01 01:22:04;;;;;;;10.63;9.53;;;21.40;99.90;;;;;;5031738;28;20413;-69
2022/07/01 01:24:30;;;;;;;12.63;11.20;;;21.40;99.90;;;;;;5032870;28;20433;-71
2022/07/01 01:26:56;;;;;;;12.37;10.40;;;21.40;99.90;;;;;;5033429;28;20591;-69
2022/07/01 01:29:21;;;;;;;12.30;10.10;;;21.40;99.90;;;;;;5033111;28;20211;-69
2022/07/01 01:31:47;;;;;;;10.70;9.60;;;21.40;99.90;;;;;;5032923;28;20410;-69
2022/07/01 01:34:13;;;;;;;12.40;10.50;;;21.30;99.90;;;;;;5032576;28;20241;-69
2022/07/01 01:36:38;;;;;;;10.70;9.60;;;21.30;99.90;;;;;;5032212;28;20203;-69
2022/07/01 01:41:32;;;;;;;12.77;11.03;;;21.30;99.90;;;;;;5032549;28;20175;-68
2022/07/01 01:43:58;;;;;;;13.67;10.83;;;21.30;99.90;;;;;;5032194;28;20523;-69
2022/07/01 01:46:23;;;;;;;11.53;9.90;;;21.30;99.90;;;;;;5031902;28;20746;-68
2022/07/01 01:48:49;;;;;;;12.53;10.60;;;21.30;99.90;;;;;;5032177;28;20656;-69
2022/07/01 01:51:14;;;;;;;12.13;10.63;;;21.30;99.90;;;;;;5032218;28;20178;-68
2022/07/01 01:53:40;;;;;;;12.50;11.27;;;21.30;99.90;;;;;;5032430;28;20353;-69
2022/07/01 01:56:06;;;;;;;13.43;11.07;;;21.30;99.90;;;;;;5032321;28;20622;-68
2022/07/01 01:58:31;;;;;;;13.30;11.73;;;21.30;99.90;;;;;;5033060;28;20522;-69
2022/07/01 02:00:57;;;;;;;14.70;12.43;;;21.30;99.90;;;;;;5032316;28;20178;-69
2022/07/01 02:03:22;;;;;;;14.20;11.53;;;21.30;99.90;;;;;;5031766;28;20240;-69
2022/07/01 02:05:48;;;;;;;17.17;13.07;;;21.30;99.90;;;;;;5014116;28;20182;-69
2022/07/01 02:08:13;;;;;;;14.67;11.00;;;21.30;99.90;;;;;;5032105;28;20269;-69
2022/07/01 02:10:39;;;;;;;12.50;10.37;;;21.30;99.90;;;;;;5032308;28;20181;-69
2022/07/01 02:13:04;;;;;;;15.67;11.53;;;21.30;99.90;;;;;;5031659;28;20679;-69
2022/07/01 02:15:30;;;;;;;14.10;12.53;;;21.30;99.90;;;;;;5032041;28;20218;-69
2022/07/01 02:17:56;;;;;;;18.03;13.30;;;21.30;99.90;;;;;;5032179;28;20499;-69
2022/07/01 02:20:22;;;;;;;15.60;12.60;;;21.20;99.90;;;;;;5032198;28;20212;-68
2022/07/01 02:22:48;;;;;;;17.83;12.40;;;21.20;99.90;;;;;;5031972;28;20434;-69
2022/07/01 02:25:13;;;;;;;14.50;12.13;;;21.20;99.90;;;;;;5031926;28;20768;-69
2022/07/01 02:27:39;;;;;;;15.43;12.63;;;21.20;99.90;;;;;;5032502;28;20533;-68
2022/07/01 02:30:05;;;;;;;16.80;12.37;;;21.20;99.90;;;;;;5031896;28;20175;-69
2022/07/01 02:32:31;;;;;;;16.40;13.50;;;21.20;99.90;;;;;;5032715;28;20268;-69
2022/07/01 02:34:57;;;;;;;14.57;11.90;;;21.20;99.90;;;;;;5035658;28;20458;-69
2022/07/01 02:37:22;;;;;;;15.87;11.23;;;21.20;99.90;;;;;;5035756;28;20564;-69
2022/07/01 02:39:48;;;;;;;16.47;12.27;;;21.20;99.90;;;;;;5035891;28;20579;-69
2022/07/01 02:42:34;;;;;;;12.97;11.30;;;21.20;99.90;;;;;;5035704;28;20627;-69
2022/07/01 02:45:00;;;;;;;14.23;12.03;;;21.20;99.90;;;;;;5017521;28;20183;-70
2022/07/01 02:47:34;;;;;;;17.20;12.33;;;21.20;99.90;;;;;;5035625;28;20536;-68
2022/07/01 02:50:00;;;;;;;16.23;12.37;;;21.20;99.90;;;;;;5035745;28;20744;-69
2022/07/01 02:52:26;;;;;;;14.87;12.30;;;21.20;99.90;;;;;;5035435;28;20412;-69
2022/07/01 02:54:52;;;;;;;15.47;11.93;;;21.20;99.90;;;;;;5035227;28;20543;-70
2022/07/01 02:57:18;;;;;;;16.10;12.67;;;21.20;99.90;;;;;;5035551;28;20552;-70
2022/07/01 02:59:43;;;;;;;15.80;12.47;;;21.20;99.90;;;;;;5035363;28;20171;-69
2022/07/01 03:02:09;;;;;;;14.07;12.60;;;21.30;99.90;;;;;;5035213;28;20169;-69
2022/07/01 03:04:34;;;;;;;14.77;13.17;;;21.30;99.90;;;;;;5035108;28;20185;-69
2022/07/01 03:07:00;;;;;;;15.30;12.60;;;21.30;99.90;;;;;;5035355;28;20251;-69
2022/07/01 03:09:26;;;;;;;18.73;13.30;;;21.30;99.90;;;;;;5035450;28;20173;-69
2022/07/01 03:11:51;;;;;;;15.70;11.93;;;21.30;99.90;;;;;;5035387;28;20180;-69
2022/07/01 03:14:17;;;;;;;13.77;11.57;;;21.30;99.90;;;;;;5034816;28;20513;-69
2022/07/01 03:16:43;;;;;;;13.90;12.17;;;21.30;99.90;;;;;;5034898;28;20538;-69
2022/07/01 03:19:09;;;;;;;13.33;11.87;;;21.20;99.90;;;;;;5034947;28;20258;-69
2022/07/01 03:21:34;;;;;;;14.57;11.80;;;21.30;99.90;;;;;;5017258;28;20175;-69
2022/07/01 03:24:00;;;;;;;16.60;12.87;;;21.30;99.90;;;;;;5035011;28;20426;-69
2022/07/01 03:26:26;;;;;;;14.47;12.70;;;21.30;99.90;;;;;;5034714;28;20235;-69
2022/07/01 03:28:51;;;;;;;16.90;13.07;;;21.30;99.90;;;;;;5034823;28;20549;-69
2022/07/01 03:31:17;;;;;;;13.80;12.40;;;21.30;99.90;;;;;;5034766;28;20184;-69
2022/07/01 03:33:42;;;;;;;14.20;12.60;;;21.40;99.90;;;;;;5034552;28;20260;-70
2022/07/01 03:36:08;;;;;;;15.90;12.50;;;21.40;99.90;;;;;;5034472;28;20201;-69
2022/07/01 03:38:34;;;;;;;12.47;11.00;;;21.40;99.90;;;;;;5034870;28;20632;-69
2022/07/01 03:41:00;;;;;;;12.83;11.20;;;21.50;99.90;;;;;;5034733;28;20405;-69
2022/07/01 03:43:25;;;;;;;16.23;13.10;;;21.50;99.90;;;;;;5034024;28;20190;-69
2022/07/01 03:45:51;;;;;;;16.10;13.03;;;21.60;99.90;;;;;;5033559;28;20186;-71
2022/07/01 03:48:16;;;;;;;14.93;13.27;;;21.60;99.90;;;;;;5034437;28;20181;-68
2022/07/01 03:50:42;;;;;;;16.40;13.20;;;21.60;99.90;;;;;;5034472;28;20171;-68
2022/07/01 03:55:51;;;;;;;15.07;12.10;;;21.70;99.90;;;;;;5034179;28;20279;-69
2022/07/01 03:58:17;;;;;;;14.40;12.27;;;21.70;99.90;;;;;;5034404;28;20862;-69
2022/07/01 04:00:42;;;;;;;14.30;12.30;;;21.80;99.90;;;;;;5034402;28;20175;-69
2022/07/01 04:03:08;;;;;;;14.27;12.03;;;21.80;99.90;;;;;;5034080;28;20200;-69
2022/07/01 04:05:35;;;;;;;13.20;11.50;;;21.80;99.90;;;;;;5033990;28;20175;-69
2022/07/01 04:08:07;;;;;;;13.60;12.27;;;21.90;99.90;;;;;;5034211;28;20219;-69
2022/07/01 04:10:33;;;;;;;16.27;12.70;;;21.90;99.90;;;;;;5034196;28;20411;-69
2022/07/01 04:13:03;;;;;;;14.23;12.70;;;22.00;99.90;;;;;;5033737;28;20420;-69
2022/07/01 04:15:29;;;;;;;14.83;11.87;;;22.10;99.90;;;;;;5033665;28;20544;-69
2022/07/01 04:17:55;;;;;;;12.77;11.47;;;22.20;99.90;;;;;;5034269;28;20855;-69
2022/07/01 04:20:20;;;;;;;12.30;10.93;;;22.40;99.90;;;;;;5034034;28;20174;-68
2022/07/01 04:22:46;;;;;;;12.77;11.17;;;23.10;99.90;;;;;;5033738;28;20409;-68
2022/07/01 04:25:11;;;;;;;11.10;10.00;;;23.80;99.90;;;;;;5033637;28;20224;-69
2022/07/01 04:27:37;;;;;;;12.57;11.27;;;24.30;99.90;;;;;;5033893;28;20178;-70
2022/07/01 04:30:03;;;;;;;13.80;12.33;;;24.90;99.90;;;;;;5033931;28;20169;-70
2022/07/01 04:32:30;;;;;;;11.97;9.80;;;25.10;99.90;;;;;;5033974;28;20268;-68
2022/07/01 04:34:55;;;;;;;14.97;12.77;;;25.20;99.90;;;;;;5033659;28;20436;-68
2022/07/01 04:37:21;;;;;;;13.00;11.53;;;25.60;99.90;;;;;;5033952;28;20936;-69
2022/07/01 04:39:46;;;;;;;13.67;11.13;;;25.70;99.90;;;;;;5033954;28;20522;-70
2022/07/01 04:42:14;;;;;;;11.40;10.30;;;25.60;99.90;;;;;;5033691;28;20179;-69
2022/07/01 04:44:39;;;;;;;12.10;10.80;;;25.80;99.90;;;;;;5033955;28;20194;-69
2022/07/01 04:47:05;;;;;;;13.83;11.80;;;25.70;99.90;;;;;;5034027;28;20448;-69
2022/07/01 04:49:31;;;;;;;15.63;10.43;;;25.80;99.90;;;;;;5033985;28;20174;-69
2022/07/01 04:51:57;;;;;;;12.30;11.00;;;25.20;99.90;;;;;;5034010;28;20179;-70
2022/07/01 04:54:25;;;;;;;12.17;10.87;;;25.00;99.90;;;;;;5033691;28;20678;-69
2022/07/01 04:56:52;;;;;;;12.47;10.50;;;24.80;99.90;;;;;;5032706;28;20449;-69
2022/07/01 04:59:18;;;;;;;13.30;11.90;;;24.90;99.90;;;;;;5033384;28;20503;-69
2022/07/01 05:01:45;;;;;;;15.47;12.27;;;25.00;99.90;;;;;;5033255;28;20745;-69
2022/07/01 05:04:11;;;;;;;12.33;11.03;;;25.20;99.90;;;;;;5033006;28;20421;-69
2022/07/01 05:06:38;;;;;;;11.13;10.03;;;25.10;99.90;;;;;;5032894;28;20903;-70
2022/07/01 05:09:03;;;;;;;15.63;10.77;;;25.50;99.90;;;;;;5033118;28;20405;-69
2022/07/01 05:11:29;;;;;;;11.47;10.27;;;26.00;99.90;;;;;;5032704;28;20465;-70
2022/07/01 05:13:55;;;;;;;11.87;9.37;;;26.50;99.90;;;;;;5032515;28;20205;-69
2022/07/01 05:16:20;;;;;;;14.60;11.13;;;26.10;99.90;;;;;;5032593;28;20195;-70
2022/07/01 05:24:14;;;;;;;13.77;11.07;;;26.10;99.90;;;;;;5032536;28;20475;-69
2022/07/01 05:26:40;;;;;;;12.13;10.90;;;26.50;99.90;;;;;;5032452;28;20404;-69
2022/07/01 05:29:05;;;;;;;14.77;12.50;;;26.90;99.90;;;;;;5032573;28;20668;-69
2022/07/01 05:31:31;;;;;;;12.20;10.23;;;26.70;99.90;;;;;;5032377;28;20707;-70
2022/07/01 05:33:57;;;;;;;11.90;10.57;;;27.10;99.90;;;;;;5032536;28;20191;-69
2022/07/01 05:36:22;;;;;;;10.20;9.20;;;27.70;99.90;;;;;;5032118;28;20698;-68
2022/07/01 05:38:48;;;;;;;11.33;10.20;;;27.70;99.90;;;;;;5032357;28;20171;-69
2022/07/01 05:41:13;;;;;;;11.33;9.73;;;27.30;99.90;;;;;;5032314;28;20166;-68
2022/07/01 05:43:39;;;;;;;11.03;9.60;;;27.60;99.90;;;;;;5032347;28;20594;-68
2022/07/01 05:46:05;;;;;;;10.17;9.17;;;27.70;99.90;;;;;;5032048;28;20633;-69
2022/07/01 05:48:30;;;;;;;10.60;9.60;;;27.70;99.90;;;;;;5032282;28;20175;-69
2022/07/01 05:50:56;;;;;;;13.00;10.20;;;27.40;99.90;;;;;;5032305;28;20175;-69
2022/07/01 05:53:22;;;;;;;10.57;9.50;;;26.60;99.90;;;;;;5031938;28;20226;-69
2022/07/01 05:55:48;;;;;;;11.23;10.23;;;26.50;99.90;;;;;;5031780;28;20221;-68
2022/07/01 05:58:15;;;;;;;12.50;11.03;;;26.50;99.90;;;;;;5032223;28;20571;-69
2022/07/01 06:00:41;;;;;;;10.20;9.10;;;26.50;99.90;;;;;;5032007;28;20409;-69
2022/07/01 06:03:12;;;;;;;11.33;10.13;;;26.30;99.90;;;;;;5031973;28;20421;-70
2022/07/01 06:05:38;;;;;;;11.33;10.23;;;26.10;99.90;;;;;;5031881;28;20443;-70
2022/07/01 06:08:04;;;;;;;12.03;10.83;;;26.00;99.90;;;;;;5031586;28;20942;-70
2022/07/01 06:10:29;;;;;;;10.30;9.17;;;26.30;99.90;;;;;;5031846;28;20432;-70
2022/07/01 06:12:55;;;;;;;11.27;10.10;;;26.00;99.90;;;;;;5031933;28;20402;-70
2022/07/01 06:15:21;;;;;;;12.20;10.90;;;26.40;99.90;;;;;;5069977;22;20307;-68
2022/07/01 06:17:46;;;;;;;8.63;7.83;;;26.30;99.90;;;;;;5051653;28;20624;-69
2022/07/01 06:20:12;;;;;;;11.43;10.23;;;26.60;99.90;;;;;;5051615;28;20171;-69
2022/07/01 06:22:37;;;;;;;10.30;9.27;;;27.30;99.90;;;;;;5051577;28;20167;-69
2022/07/01 06:25:03;;;;;;;10.10;9.20;;;27.60;99.90;;;;;;5051282;28;20557;-69
2022/07/01 06:27:29;;;;;;;11.20;10.10;;;27.60;99.90;;;;;;5051774;28;20640;-69
2022/07/01 06:29:54;;;;;;;12.07;10.60;;;27.40;99.90;;;;;;5033801;28;20881;-69
2022/07/01 06:32:20;;;;;;;11.23;10.13;;;27.10;99.90;;;;;;5051530;28;20175;-69
2022/07/01 06:34:46;;;;;;;10.40;9.43;;;27.10;99.90;;;;;;5051241;28;20205;-68
2022/07/01 06:37:12;;;;;;;11.57;10.37;;;27.30;99.90;;;;;;5051772;28;20570;-68
2022/07/01 06:39:37;;;;;;;12.53;11.30;;;27.20;99.90;;;;;;5051274;28;20405;-69
2022/07/01 06:42:03;;;;;;;11.43;10.33;;;26.60;99.90;;;;;;5051662;28;20433;-68
2022/07/01 06:44:29;;;;;;;11.03;9.57;;;26.10;99.90;;;;;;5050948;28;20533;-68
2022/07/01 06:46:54;;;;;;;11.67;10.37;;;25.70;99.90;;;;;;5051332;28;20184;-69
2022/07/01 06:49:20;;;;;;;12.70;11.37;;;26.00;99.90;;;;;;5051699;28;20252;-69
2022/07/01 06:51:46;;;;;;;13.57;12.07;;;25.60;99.90;;;;;;5051699;28;20653;-68
2022/07/01 06:54:11;;;;;;;12.47;11.33;;;26.10;99.90;;;;;;5051485;28;20232;-69
2022/07/01 06:56:37;;;;;;;13.83;11.00;;;26.00;99.90;;;;;;5051074;28;20675;-68
2022/07/01 06:59:02;;;;;;;11.13;10.03;;;26.00;99.90;;;;;;5050899;28;20603;-69
2022/07/01 07:01:28;;;;;;;12.67;11.17;;;26.10;99.90;;;;;;5051274;28;20172;-69
2022/07/01 07:03:54;;;;;;;13.80;12.30;;;26.30;99.90;;;;;;5051142;28;20225;-69
2022/07/01 07:06:21;;;;;;;11.90;10.47;;;26.50;99.90;;;;;;5051366;28;20257;-69
2022/07/01 07:08:47;;;;;;;12.30;10.90;;;26.40;99.90;;;;;;5051810;28;20421;-69
2022/07/01 07:11:15;;;;;;;11.90;10.73;;;26.60;99.90;;;;;;5052385;28;20479;-68
2022/07/01 07:13:44;;;;;;;13.43;11.23;;;26.80;99.90;;;;;;5051931;28;20209;-68
2022/07/01 07:16:10;;;;;;;13.67;11.80;;;27.20;99.90;;;;;;5052785;28;20446;-69
2022/07/01 07:18:35;;;;;;;10.63;9.53;;;27.50;99.90;;;;;;5054177;28;20832;-69
2022/07/01 07:21:02;;;;;;;10.70;9.60;;;27.40;99.90;;;;;;5056987;28;20179;-69
2022/07/01 07:23:27;;;;;;;12.20;10.50;;;27.90;99.90;;;;;;5056692;28;20170;-68
2022/07/01 07:25:53;;;;;;;12.80;11.50;;;27.80;99.90;;;;;;5056399;28;20401;-68
2022/07/01 07:28:18;;;;;;;11.00;9.87;;;28.10;99.90;;;;;;5055878;28;20175;-69
2022/07/01 07:30:44;;;;;;;10.87;9.77;;;28.00;99.90;;;;;;5056775;28;20179;-69
2022/07/01 07:33:09;;;;;;;9.43;8.63;;;28.10;99.90;;;;;;5056083;28;20210;-69
2022/07/01 07:35:35;;;;;;;8.33;7.37;;;27.30;99.90;;;;;;5055933;28;20199;-69
2022/07/01 07:38:00;;;;;;;9.13;8.20;;;27.90;99.90;;;;;;5055002;28;20285;-68
2022/07/01 07:40:26;;;;;;;7.83;7.13;;;28.90;99.90;;;;;;5054903;28;20177;-68
2022/07/01 07:42:51;;;;;;;7.50;6.80;;;29.60;99.90;;;;;;5054781;28;20213;-69
2022/07/01 07:45:17;;;;;;;9.43;7.10;;;30.00;99.90;;;;;;5054633;28;20193;-68
2022/07/01 07:47:44;;;;;;;8.10;6.97;;;30.20;99.90;;;;;;5057580;28;20221;-68
2022/07/01 07:50:10;;;;;;;7.93;7.30;;;30.10;99.90;;;;;;5057570;28;20187;-68
2022/07/01 07:52:37;;;;;;;8.83;8.07;;;29.80;99.90;;;;;;5037558;28;20405;-69
2022/07/01 07:55:03;;;;;;;7.63;7.00;;;29.10;99.90;;;;;;5056444;28;20475;-69
2022/07/01 07:57:30;;;;;;;7.83;7.10;;;28.80;99.90;;;;;;5055974;28;20550;-69
2022/07/01 07:59:56;;;;;;;8.50;7.70;;;28.60;99.90;;;;;;5056700;28;20416;-69
2022/07/01 08:02:21;;;;;;;8.77;7.97;;;27.90;99.90;;;;;;5055525;28;20409;-69
2022/07/01 08:04:47;;;;;;;8.10;7.30;;;28.40;99.90;;;;;;5055001;28;20284;-69
2022/07/01 08:07:12;;;;;;;7.33;6.73;;;28.40;99.90;;;;;;5055472;28;20210;-69
2022/07/01 08:09:38;;;;;;;7.33;6.63;;;27.90;99.90;;;;;;5054690;28;20175;-69
2022/07/01 08:12:04;;;;;;;7.07;6.37;;;28.50;99.90;;;;;;5054590;28;20246;-69
2022/07/01 08:14:30;;;;;;;6.93;6.33;;;28.70;99.90;;;;;;5053846;28;20206;-68
2022/07/01 08:16:55;;;;;;;9.30;8.30;;;28.70;99.90;;;;;;5054133;28;20536;-68
2022/07/01 08:19:21;;;;;;;8.23;7.43;;;28.50;99.90;;;;;;5053874;28;20476;-68
2022/07/01 08:21:47;;;;;;;7.93;7.23;;;28.50;99.90;;;;;;5053925;28;20170;-68
2022/07/01 08:24:12;;;;;;;6.93;6.30;;;27.80;99.90;;;;;;5053854;28;20217;-68
2022/07/01 08:26:38;;;;;;;6.20;5.60;;;28.10;99.90;;;;;;5055310;28;20473;-69
2022/07/01 08:29:03;;;;;;;8.47;7.13;;;28.10;99.90;;;;;;5055888;28;20664;-69
2022/07/01 08:31:29;;;;;;;7.20;6.50;;;27.60;99.90;;;;;;5055224;28;20174;-69
2022/07/01 08:33:55;;;;;;;8.10;7.30;;;28.10;99.90;;;;;;5055808;28;20202;-68
2022/07/01 08:36:21;;;;;;;7.40;6.70;;;28.30;99.90;;;;;;5056555;28;20959;-68
2022/07/01 08:38:48;;;;;;;6.83;6.33;;;28.40;99.90;;;;;;5055795;28;20542;-68
2022/07/01 08:41:14;;;;;;;6.87;6.17;;;28.30;99.90;;;;;;5053955;28;20167;-68
2022/07/01 08:43:39;;;;;;;6.63;6.03;;;28.60;99.90;;;;;;5053275;28;20425;-69
2022/07/01 08:46:07;;;;;;;6.80;6.30;;;29.40;99.90;;;;;;5054915;28;20171;-69
2022/07/01 08:48:33;;;;;;;7.50;6.80;;;29.30;99.90;;;;;;5055109;28;20232;-68
2022/07/01 08:51:03;;;;;;;6.57;5.97;;;29.50;99.90;;;;;;5055655;28;20441;-68
2022/07/01 08:53:29;;;;;;;8.37;7.57;;;29.50;99.90;;;;;;5054966;28;20860;-68
2022/07/01 08:58:39;;;;;;;5.90;5.40;;;28.30;99.90;;;;;;5053686;28;20467;-69
2022/07/01 09:01:22;;;;;;;7.63;6.50;;;29.50;99.90;;;;;;5055072;28;20405;-68
2022/07/01 09:03:50;;;;;;;7.30;6.63;;;29.00;99.90;;;;;;5054749;28;20187;-69
2022/07/01 09:06:35;;;;;;;6.27;5.67;;;30.90;99.90;;;;;;5054607;28;20417;-70
2022/07/01 09:09:16;;;;;;;6.47;5.97;;;31.60;99.90;;;;;;5054948;28;20401;-69
2022/07/01 09:11:55;;;;;;;8.17;7.40;;;32.00;99.90;;;;;;5054851;28;20405;-70
2022/07/01 09:14:27;;;;;;;7.10;6.50;;;30.90;99.90;;;;;;5054155;28;20478;-68
2022/07/01 09:16:55;;;;;;;6.10;5.60;;;30.60;99.90;;;;;;5052633;28;20445;-69
2022/07/01 09:19:22;;;;;;;7.87;7.17;;;30.60;99.90;;;;;;5052897;28;20907;-69
2022/07/01 09:21:51;;;;;;;6.83;6.23;;;29.20;99.90;;;;;;5052658;28;20394;-69
2022/07/01 09:24:24;;;;;;;6.90;6.33;;;29.50;99.90;;;;;;5052741;28;20479;-69
2022/07/01 09:27:00;;;;;;;8.73;6.77;;;28.50;99.90;;;;;;5053234;28;20760;-69
2022/07/01 09:29:37;;;;;;;5.70;5.00;;;28.40;99.90;;;;;;5055052;28;20405;-70
2022/07/01 09:32:05;;;;;;;3.60;2.60;;;27.90;99.90;;;;;;5054929;28;20699;-70
2022/07/01 09:34:45;;;;;;;2.53;2.33;;;26.70;99.90;;;;;;5058337;28;20433;-69
2022/07/01 09:37:16;;;;;;;2.47;2.27;;;25.80;99.90;;;;;;5055304;28;20483;-70
2022/07/01 09:39:52;;;;;;;1.87;1.77;;;25.80;99.90;;;;;;5053896;28;20407;-68
2022/07/01 09:42:22;;;;;;;3.87;1.80;;;25.10;99.90;;;;;;5051736;28;20394;-68
2022/07/01 09:44:55;;;;;;;2.30;1.80;;;25.10;99.90;;;;;;5034267;28;20522;-68
2022/07/01 09:47:24;;;;;;;4.80;1.87;;;24.60;99.90;;;;;;5052274;28;20566;-68
2022/07/01 09:49:50;;;;;;;1.20;1.10;;;24.90;99.90;;;;;;5034182;28;20499;-68
2022/07/01 09:52:17;;;;;;;2.50;1.27;;;23.90;99.90;;;;;;5052314;28;20401;-69
2022/07/01 09:54:47;;;;;;;3.47;1.57;;;24.10;99.90;;;;;;5052027;28;20427;-69
2022/07/01 09:57:13;;;;;;;1.93;1.13;;;24.00;99.90;;;;;;5052077;28;20972;-69
2022/07/01 09:59:38;;;;;;;5.73;1.47;;;23.90;99.90;;;;;;5051961;28;20407;-69
2022/07/01 10:02:06;;;;;;;0.80;0.80;;;23.70;99.90;;;;;;5052291;28;20412;-68
2022/07/01 10:04:34;;;;;;;1.77;1.40;;;22.70;99.90;;;;;;5052334;28;20663;-69
2022/07/01 10:07:35;;;;;;;1.33;0.87;;;22.70;99.90;;;;;;5052793;28;20404;-69
2022/07/01 10:10:41;;;;;;;1.10;1.00;;;22.20;99.90;;;;;;5052633;28;20417;-68
2022/07/01 10:13:09;;;;;;;2.40;1.33;;;21.90;99.90;;;;;;5052147;28;20503;-68
2022/07/01 10:15:35;;;;;;;1.63;1.53;;;21.50;99.90;;;;;;5033425;28;20820;-68
2022/07/01 10:18:02;;;;;;;1.77;1.50;;;21.90;99.90;;;;;;5052055;28;20418;-68
2022/07/01 10:20:30;;;;;;;1.30;1.20;;;21.80;99.90;;;;;;5051985;28;20412;-68
2022/07/01 10:23:03;;;;;;;1.20;1.10;;;21.80;99.90;;;;;;5051643;28;20414;-69
2022/07/01 10:25:30;;;;;;;1.20;1.10;;;21.70;99.90;;;;;;5051413;28;20434;-69
2022/07/01 10:28:14;;;;;;;1.80;1.17;;;21.40;99.90;;;;;;5051708;28;20469;-68
2022/07/01 10:30:56;;;;;;;1.20;1.10;;;21.60;99.90;;;;;;5051607;28;20401;-68
2022/07/01 10:33:31;;;;;;;1.40;1.23;;;21.30;99.90;;;;;;5051776;28;20402;-68
2022/07/01 10:36:21;;;;;;;2.33;1.10;;;21.40;99.90;;;;;;5051597;28;20462;-69
2022/07/01 10:39:09;;;;;;;1.57;1.30;;;21.60;99.90;;;;;;5052115;28;20467;-69
2022/07/01 10:41:53;;;;;;;2.00;1.60;;;21.40;99.90;;;;;;5052130;28;20399;-69
2022/07/01 10:44:20;;;;;;;2.03;1.80;;;21.30;99.90;;;;;;5052143;28;20821;-69
2022/07/01 10:46:59;;;;;;;3.33;1.70;;;21.40;99.90;;;;;;5052652;28;20763;-69
2022/07/01 10:49:36;;;;;;;1.60;1.50;;;21.00;99.90;;;;;;5053565;28;20397;-69
2022/07/01 10:52:09;;;;;;;1.50;1.40;;;20.60;99.90;;;;;;5053338;28;20398;-69
2022/07/01 10:54:35;;;;;;;1.80;1.40;;;20.70;99.90;;;;;;5056053;28;20462;-69
2022/07/01 10:57:15;;;;;;;2.70;1.73;;;20.60;99.90;;;;;;5057690;28;20481;-69
2022/07/01 10:59:42;;;;;;;1.60;1.50;;;19.90;99.90;;;;;;5057787;28;20410;-68
2022/07/01 11:02:16;;;;;;;1.30;1.20;;;19.90;99.90;;;;;;5056536;28;20406;-69
2022/07/01 11:04:41;;;;;;;2.60;1.50;;;20.10;99.90;;;;;;5055736;28;20874;-68
2022/07/01 11:07:08;;;;;;;1.30;1.20;;;19.90;99.90;;;;;;5055916;28;20405;-69
2022/07/01 11:09:34;;;;;;;2.73;1.30;;;19.60;99.90;;;;;;5055702;28;20209;-69
2022/07/01 11:12:00;;;;;;;0.80;0.80;;;19.40;99.90;;;;;;5055837;28;20504;-70
2022/07/01 11:14:26;;;;;;;0.80;0.80;;;19.60;99.90;;;;;;5055175;28;20676;-70
2022/07/01 11:16:52;;;;;;;1.77;1.30;;;19.50;99.90;;;;;;5055876;28;20460;-69
2022/07/01 11:19:18;;;;;;;0.93;0.73;;;19.40;99.90;;;;;;5042306;28;20411;-68
2022/07/01 11:21:54;;;;;;;1.10;1.00;;;19.50;99.90;;;;;;5062287;28;20178;-69
2022/07/01 11:24:20;;;;;;;1.83;0.90;;;19.30;99.90;;;;;;5037340;28;21056;-69
2022/07/01 11:26:47;;;;;;;0.70;0.70;;;19.10;99.90;;;;;;5055245;28;20404;-68
2022/07/01 11:29:25;;;;;;;0.80;0.60;;;19.00;99.90;;;;;;5055395;28;20423;-69
2022/07/01 11:31:51;;;;;;;1.03;0.83;;;18.90;99.90;;;;;;5037319;28;20415;-69
2022/07/01 11:34:17;;;;;;;1.00;0.87;;;18.80;99.90;;;;;;5054964;28;20453;-69
2022/07/01 11:39:33;;;;;;;1.70;1.10;;;19.10;99.90;;;;;;5056692;28;20403;-70
2022/07/01 11:42:06;;;;;;;1.00;0.90;;;19.30;99.90;;;;;;5057228;28;20790;-69
2022/07/01 11:44:43;;;;;;;1.53;1.07;;;19.30;99.90;;;;;;5059009;28;20432;-70
2022/07/01 11:47:22;;;;;;;1.43;1.27;;;19.00;99.90;;;;;;5059381;28;20452;-70
2022/07/01 11:49:48;;;;;;;1.07;0.97;;;18.80;99.90;;;;;;5057660;28;20819;-69
2022/07/01 11:52:15;;;;;;;1.40;1.20;;;18.70;99.90;;;;;;5057556;28;20412;-70
2022/07/01 11:54:44;;;;;;;0.83;0.83;;;18.80;99.90;;;;;;5054634;28;20431;-69
2022/07/01 11:57:16;;;;;;;1.13;0.90;;;19.10;99.90;;;;;;5054840;28;20462;-69
2022/07/01 11:59:43;;;;;;;0.87;0.87;;;18.70;99.90;;;;;;5054727;28;20414;-68
2022/07/01 12:02:11;;;;;;;1.40;1.00;;;18.70;99.90;;;;;;5054758;28;20415;-68
2022/07/01 12:04:37;;;;;;;0.73;0.70;;;18.70;99.90;;;;;;5053838;28;20433;-69
2022/07/01 12:07:03;;;;;;;0.90;0.90;;;18.60;99.90;;;;;;5054298;28;20824;-69
2022/07/01 12:09:29;;;;;;;1.23;1.10;;;18.60;99.90;;;;;;5054787;28;20415;-68
2022/07/01 12:11:55;;;;;;;1.20;0.97;;;18.50;99.90;;;;;;5054446;28;20431;-68
2022/07/01 12:14:25;;;;;;;1.07;0.97;;;18.30;99.90;;;;;;5066261;22;20479;-69
2022/07/01 12:16:53;;;;;;;1.70;1.43;;;18.30;99.90;;;;;;5046347;28;20209;-68
2022/07/01 12:19:19;;;;;;;2.37;2.17;;;18.50;99.90;;;;;;5053977;28;20444;-68
2022/07/01 12:21:53;;;;;;;2.63;2.00;;;18.80;99.90;;;;;;5053849;28;20436;-69
2022/07/01 12:24:21;;;;;;;3.30;3.00;;;19.60;99.90;;;;;;5053724;28;20185;-69
2022/07/01 12:26:57;;;;;;;2.57;2.30;;;19.50;99.90;;;;;;5053605;28;20427;-68
2022/07/01 12:29:24;;;;;;;2.30;2.10;;;19.80;99.90;;;;;;5053715;28;20412;-69
2022/07/01 12:31:58;;;;;;;2.90;2.03;;;20.00;99.90;;;;;;5053832;28;20405;-68
2022/07/01 12:34:46;;;;;;;2.70;2.50;;;19.70;99.90;;;;;;5053461;28;20484;-69
2022/07/01 12:37:17;;;;;;;2.60;2.30;;;19.30;99.90;;;;;;5053467;28;20455;-69
2022/07/01 12:39:43;;;;;;;2.53;2.33;;;19.40;99.90;;;;;;5053667;28;20455;-69
2022/07/01 12:42:18;;;;;;;3.07;2.70;;;19.60;99.90;;;;;;5053335;28;20393;-69
2022/07/01 12:44:45;;;;;;;2.80;2.60;;;19.40;99.90;;;;;;5053174;28;20433;-69
2022/07/01 12:47:19;;;;;;;2.63;2.07;;;19.40;99.90;;;;;;5053843;28;20810;-69
2022/07/01 12:49:44;;;;;;;2.83;2.43;;;19.20;99.90;;;;;;5053224;28;20497;-69
2022/07/01 12:52:26;;;;;;;3.00;2.70;;;19.10;99.90;;;;;;5053467;28;20484;-68
2022/07/01 12:54:52;;;;;;;2.53;2.20;;;19.10;99.90;;;;;;5052803;28;20179;-68
2022/07/01 12:57:29;;;;;;;11.10;3.20;;;19.60;99.90;;;;;;5053140;28;20889;-69